Time;durP1;ratioP1;P1;durP2;ratioP2;P2;SDS_P1;SDS_P2;PMS_P1;PMS_P2;Temp;Humidity;BMP_temperature;BMP_pressure;BME280_temperature;BME280_humidity;BME280_pressure;Samples;Min_cycle;Max_cycle;Signal;HPM_P1;HPM_P2
2023/04/26 00:01:46;;;;;;;8.82;5.50;;;7.10;79.20;;;;;;5055703;28;20029;-74
2023/04/26 00:04:12;;;;;;;10.40;5.43;;;7.20;79.30;;;;;;5055189;28;20079;-75
2023/04/26 00:06:38;;;;;;;6.22;4.63;;;7.20;79.00;;;;;;5055122;28;20025;-76
2023/04/26 00:09:04;;;;;;;6.63;5.13;;;7.20;78.70;;;;;;5055481;28;20172;-74
2023/04/26 00:11:30;;;;;;;9.13;5.82;;;7.10;77.90;;;;;;5055331;28;20094;-74
2023/04/26 00:13:57;;;;;;;11.10;6.60;;;7.00;78.80;;;;;;5055306;28;20111;-74
2023/04/26 00:16:23;;;;;;;8.77;6.35;;;6.80;80.40;;;;;;5055203;28;20487;-76
2023/04/26 00:18:48;;;;;;;12.35;7.68;;;6.70;81.50;;;;;;5055124;28;20112;-75
2023/04/26 00:21:14;;;;;;;9.07;7.05;;;6.60;82.50;;;;;;5055316;28;20029;-74
2023/04/26 00:23:41;;;;;;;8.77;6.55;;;6.60;82.20;;;;;;5055209;28;20082;-75
2023/04/26 00:26:06;;;;;;;9.40;6.35;;;6.60;82.00;;;;;;5055139;28;20466;-75
2023/04/26 00:28:32;;;;;;;7.25;6.00;;;6.70;82.10;;;;;;5055155;28;20028;-75
2023/04/26 00:30:57;;;;;;;7.80;5.90;;;6.70;81.60;;;;;;5055257;28;20067;-75
2023/04/26 00:33:23;;;;;;;8.40;5.97;;;6.80;81.40;;;;;;5054946;28;20212;-76
2023/04/26 00:35:49;;;;;;;8.13;5.90;;;6.80;81.30;;;;;;5054904;28;20072;-75
2023/04/26 00:38:15;;;;;;;6.88;5.57;;;6.90;81.20;;;;;;5055055;28;20496;-76
2023/04/26 00:40:40;;;;;;;7.47;6.28;;;7.00;81.20;;;;;;5054776;28;20044;-76
2023/04/26 00:43:06;;;;;;;8.75;6.45;;;7.00;81.20;;;;;;5054957;28;20029;-76
2023/04/26 00:45:32;;;;;;;9.82;6.85;;;7.00;81.60;;;;;;5054823;28;20104;-75
2023/04/26 00:48:01;;;;;;;10.38;7.50;;;7.10;82.00;;;;;;5054737;28;20047;-77
2023/04/26 00:50:27;;;;;;;8.95;6.57;;;7.00;82.20;;;;;;5054668;28;20025;-76
2023/04/26 00:52:54;;;;;;;12.00;7.15;;;7.00;82.40;;;;;;5054631;28;20021;-75
2023/04/26 00:55:21;;;;;;;9.20;6.90;;;7.00;82.70;;;;;;5036734;28;20074;-76
2023/04/26 00:57:47;;;;;;;10.93;6.53;;;6.90;82.80;;;;;;5054612;28;20032;-74
2023/04/26 01:00:15;;;;;;;9.20;6.07;;;6.80;83.20;;;;;;5036463;28;20428;-76
2023/04/26 01:02:41;;;;;;;6.07;5.43;;;6.80;83.20;;;;;;5054556;28;20105;-74
2023/04/26 01:05:08;;;;;;;8.32;6.20;;;6.80;83.60;;;;;;5054424;28;20076;-75
2023/04/26 01:07:35;;;;;;;9.45;6.18;;;6.80;83.60;;;;;;5054729;28;20069;-75
2023/04/26 01:10:04;;;;;;;6.43;5.35;;;6.70;83.80;;;;;;5054144;28;20048;-75
2023/04/26 01:12:29;;;;;;;6.70;5.50;;;6.80;84.00;;;;;;5054301;28;20028;-76
2023/04/26 01:14:56;;;;;;;7.82;5.30;;;6.80;83.90;;;;;;5054300;28;20434;-75
2023/04/26 01:17:22;;;;;;;8.23;6.15;;;6.70;83.60;;;;;;5053715;28;20063;-76
2023/04/26 01:19:50;;;;;;;8.23;5.90;;;6.70;83.50;;;;;;5054126;28;20021;-75
2023/04/26 01:22:17;;;;;;;7.80;5.60;;;6.60;83.20;;;;;;5054319;28;20041;-75
2023/04/26 01:24:49;;;;;;;7.28;5.60;;;6.60;83.10;;;;;;5053999;28;20485;-76
2023/04/26 01:27:15;;;;;;;9.60;5.85;;;6.60;83.20;;;;;;5054077;28;20032;-76
2023/04/26 01:29:41;;;;;;;7.72;5.90;;;6.60;83.40;;;;;;5053973;28;20071;-76
2023/04/26 01:32:06;;;;;;;7.60;6.20;;;6.60;83.60;;;;;;5053813;28;20020;-76
2023/04/26 01:34:33;;;;;;;8.45;6.07;;;6.60;85.00;;;;;;5054067;28;20021;-75
2023/04/26 01:36:59;;;;;;;7.30;6.20;;;6.70;84.10;;;;;;5049279;28;20067;-76
2023/04/26 01:39:25;;;;;;;8.63;6.13;;;6.70;84.10;;;;;;5033946;28;20091;-76
2023/04/26 01:41:50;;;;;;;9.75;6.07;;;6.70;84.00;;;;;;5033895;28;20112;-75
2023/04/26 01:44:16;;;;;;;9.10;6.78;;;6.80;83.80;;;;;;5033761;28;20030;-77
2023/04/26 01:46:42;;;;;;;10.02;6.53;;;6.70;83.60;;;;;;5033640;28;20037;-77
2023/04/26 01:49:07;;;;;;;8.32;5.95;;;6.70;83.90;;;;;;5033603;28;20025;-76
2023/04/26 01:51:33;;;;;;;8.18;5.82;;;6.70;83.90;;;;;;5033716;28;20092;-76
2023/04/26 01:53:59;;;;;;;8.68;7.13;;;6.60;83.30;;;;;;5033706;28;20474;-74
2023/04/26 01:56:25;;;;;;;8.02;7.00;;;6.50;83.40;;;;;;5033605;28;20033;-75
2023/04/26 01:58:50;;;;;;;9.98;6.68;;;6.40;83.50;;;;;;5033209;28;20033;-75
2023/04/26 02:01:16;;;;;;;7.78;6.20;;;6.40;83.80;;;;;;5033421;28;20055;-76
2023/04/26 02:03:41;;;;;;;12.40;6.70;;;6.40;84.00;;;;;;5033222;28;20074;-76
2023/04/26 02:06:07;;;;;;;8.20;6.40;;;6.40;84.00;;;;;;5031746;28;20071;-75
2023/04/26 02:08:32;;;;;;;6.70;6.00;;;6.40;84.10;;;;;;5033298;28;20025;-76
2023/04/26 02:10:58;;;;;;;9.98;6.78;;;6.50;84.10;;;;;;5033294;28;20025;-76
2023/04/26 02:13:24;;;;;;;10.57;7.15;;;6.50;83.90;;;;;;5033213;28;20029;-76
2023/04/26 02:15:50;;;;;;;12.75;6.13;;;6.50;83.40;;;;;;5033120;28;20374;-76
2023/04/26 02:18:16;;;;;;;9.25;5.75;;;6.50;83.00;;;;;;5033136;28;20029;-75
2023/04/26 02:20:43;;;;;;;9.63;5.90;;;6.50;83.10;;;;;;5032982;28;20044;-76
2023/04/26 02:23:09;;;;;;;7.70;6.35;;;6.50;83.50;;;;;;5033193;28;20099;-77
2023/04/26 02:25:36;;;;;;;9.82;6.60;;;6.50;83.20;;;;;;5033097;28;20521;-76
2023/04/26 02:28:02;;;;;;;10.50;7.40;;;6.50;83.20;;;;;;5032810;28;20067;-76
2023/04/26 02:30:28;;;;;;;13.20;7.05;;;6.40;83.60;;;;;;5033010;28;20112;-78
2023/04/26 02:32:54;;;;;;;12.68;7.13;;;6.40;82.80;;;;;;5032737;28;20430;-76
2023/04/26 02:35:20;;;;;;;8.90;6.88;;;6.30;82.90;;;;;;5031753;28;20116;-76
2023/04/26 02:37:51;;;;;;;12.63;7.38;;;6.20;82.80;;;;;;5052081;28;20125;-75
2023/04/26 02:40:19;;;;;;;9.07;7.15;;;6.20;82.90;;;;;;5052808;28;20124;-75
2023/04/26 02:42:45;;;;;;;9.52;6.95;;;6.20;83.00;;;;;;5052833;28;20104;-74
2023/04/26 02:45:11;;;;;;;11.90;7.65;;;6.10;83.10;;;;;;5052726;28;20083;-74
2023/04/26 02:47:37;;;;;;;14.25;7.88;;;6.10;83.30;;;;;;5052712;28;20091;-74
2023/04/26 02:50:07;;;;;;;10.98;7.88;;;6.10;83.30;;;;;;5052779;28;20366;-75
2023/04/26 02:52:34;;;;;;;13.60;8.13;;;6.10;83.20;;;;;;5052719;28;20024;-76
2023/04/26 02:55:03;;;;;;;9.50;7.05;;;6.10;83.10;;;;;;5052779;28;20028;-76
2023/04/26 02:57:29;;;;;;;13.30;6.57;;;6.00;82.90;;;;;;5052899;28;20480;-74
2023/04/26 02:59:55;;;;;;;10.05;7.03;;;6.00;83.00;;;;;;5052756;28;20064;-77
2023/04/26 03:02:20;;;;;;;11.00;6.28;;;6.00;83.00;;;;;;5052538;28;20059;-76
2023/04/26 03:04:46;;;;;;;10.05;7.45;;;6.00;82.80;;;;;;5052747;28;20366;-75
2023/04/26 03:07:12;;;;;;;9.95;6.97;;;6.00;82.80;;;;;;5052602;28;20017;-75
2023/04/26 03:09:38;;;;;;;11.25;7.80;;;6.10;82.90;;;;;;5052434;28;20017;-76
2023/04/26 03:12:05;;;;;;;10.18;7.30;;;6.00;82.90;;;;;;5052708;28;20048;-75
2023/04/26 03:14:32;;;;;;;15.40;8.23;;;6.00;83.00;;;;;;5052655;28;20029;-75
2023/04/26 03:16:58;;;;;;;13.77;6.82;;;5.90;82.90;;;;;;5052357;28;20048;-76
2023/04/26 03:19:23;;;;;;;13.13;8.30;;;6.00;83.10;;;;;;5052641;28;20056;-75
2023/04/26 03:21:49;;;;;;;16.88;8.60;;;5.90;82.90;;;;;;5034656;28;20029;-77
2023/04/26 03:24:14;;;;;;;12.15;7.85;;;5.90;82.50;;;;;;5052489;28;20481;-74
2023/04/26 03:26:40;;;;;;;14.48;9.48;;;5.90;82.70;;;;;;5052547;28;20032;-75
2023/04/26 03:29:06;;;;;;;16.77;9.60;;;5.90;82.80;;;;;;5052507;28;20025;-74
2023/04/26 03:31:32;;;;;;;16.38;9.88;;;6.00;83.00;;;;;;5052364;28;20017;-76
2023/04/26 03:33:57;;;;;;;13.75;8.73;;;6.00;83.00;;;;;;5052295;28;20033;-76
2023/04/26 03:36:23;;;;;;;12.52;8.70;;;6.00;83.10;;;;;;5052188;28;20049;-73
2023/04/26 03:38:48;;;;;;;16.67;9.38;;;6.00;83.10;;;;;;5034376;28;20029;-75
2023/04/26 03:41:14;;;;;;;13.55;9.60;;;6.00;83.00;;;;;;5055189;28;20029;-73
2023/04/26 03:43:39;;;;;;;15.80;11.13;;;6.00;83.20;;;;;;5055575;28;20021;-76
2023/04/26 03:46:05;;;;;;;13.27;9.25;;;6.00;83.30;;;;;;5055775;28;20036;-75
2023/04/26 03:48:30;;;;;;;14.55;9.07;;;5.90;83.40;;;;;;5055767;28;20474;-74
2023/04/26 03:50:56;;;;;;;10.70;7.93;;;5.90;83.40;;;;;;5055662;28;20029;-75
2023/04/26 03:53:21;;;;;;;13.48;9.05;;;5.90;83.40;;;;;;5055391;28;20060;-75
2023/04/26 03:55:47;;;;;;;12.65;8.70;;;5.90;83.30;;;;;;5055320;28;20071;-75
2023/04/26 03:58:13;;;;;;;11.55;8.95;;;5.80;83.40;;;;;;5055485;28;20086;-74
2023/04/26 04:00:42;;;;;;;9.95;8.02;;;5.80;83.40;;;;;;5055676;28;20068;-77
2023/04/26 04:03:08;;;;;;;12.88;8.52;;;5.90;83.50;;;;;;5055699;28;20109;-75
2023/04/26 04:05:34;;;;;;;11.68;7.40;;;5.90;83.50;;;;;;5055501;28;20040;-76
2023/04/26 04:07:59;;;;;;;9.27;7.30;;;5.90;83.60;;;;;;5055354;28;20025;-75
2023/04/26 04:10:25;;;;;;;11.18;7.70;;;5.90;83.60;;;;;;5055365;28;20029;-74
2023/04/26 04:12:52;;;;;;;11.55;7.88;;;5.80;83.60;;;;;;5055316;28;20116;-74
2023/04/26 04:15:19;;;;;;;9.65;8.05;;;5.80;83.40;;;;;;5055210;28;20025;-75
2023/04/26 04:17:45;;;;;;;14.25;8.63;;;5.80;83.70;;;;;;5055418;28;20014;-75
2023/04/26 04:20:11;;;;;;;16.67;9.70;;;5.80;83.70;;;;;;5055168;28;20059;-73
2023/04/26 04:22:39;;;;;;;17.77;10.07;;;5.80;83.70;;;;;;5055046;28;20032;-74
2023/04/26 04:25:09;;;;;;;15.07;9.27;;;5.80;83.60;;;;;;5055181;28;20031;-77
2023/04/26 04:27:37;;;;;;;14.02;9.07;;;5.70;83.20;;;;;;5055092;28;20021;-75
2023/04/26 04:30:08;;;;;;;14.95;8.95;;;5.60;83.60;;;;;;5037454;28;20116;-77
2023/04/26 04:32:35;;;;;;;15.02;8.85;;;5.60;83.70;;;;;;5054992;28;20059;-76
2023/04/26 04:35:01;;;;;;;10.88;7.63;;;5.60;83.80;;;;;;5055019;28;20055;-75
2023/04/26 04:37:27;;;;;;;13.10;8.45;;;5.60;83.70;;;;;;5054878;28;20045;-76
2023/04/26 04:39:53;;;;;;;10.90;8.27;;;5.60;83.70;;;;;;5054777;28;20028;-77
2023/04/26 04:42:20;;;;;;;11.73;8.18;;;5.70;83.70;;;;;;5054674;28;20032;-76
2023/04/26 04:44:45;;;;;;;15.07;9.30;;;5.70;83.80;;;;;;5054926;28;20028;-74
2023/04/26 04:47:11;;;;;;;14.32;9.55;;;5.70;83.70;;;;;;5054376;28;20029;-73
2023/04/26 04:49:37;;;;;;;13.25;9.43;;;5.70;83.50;;;;;;5054486;28;20021;-74
2023/04/26 04:52:03;;;;;;;13.52;9.45;;;5.70;82.90;;;;;;5053277;28;20056;-77
2023/04/26 04:54:29;;;;;;;14.95;9.60;;;5.70;83.10;;;;;;5054659;28;20096;-76
2023/04/26 04:56:56;;;;;;;14.88;9.45;;;5.70;83.80;;;;;;5054714;28;20024;-77
2023/04/26 04:59:22;;;;;;;12.07;8.27;;;5.70;83.00;;;;;;5036613;28;20412;-76
2023/04/26 05:01:49;;;;;;;16.02;8.90;;;5.70;83.00;;;;;;5054602;28;20021;-76
2023/04/26 05:04:14;;;;;;;10.90;8.65;;;5.80;83.10;;;;;;5054366;28;20032;-77
2023/04/26 05:06:40;;;;;;;13.07;9.57;;;5.80;83.10;;;;;;5054555;28;20105;-76
2023/04/26 05:09:06;;;;;;;15.85;10.32;;;5.90;83.00;;;;;;5054334;28;20132;-77
2023/04/26 05:11:32;;;;;;;14.80;9.68;;;5.90;82.70;;;;;;5054096;28;20043;-77
2023/04/26 05:13:58;;;;;;;17.17;10.57;;;5.90;82.70;;;;;;5054100;28;20032;-76
2023/04/26 05:16:23;;;;;;;17.23;10.57;;;5.90;82.90;;;;;;5053932;28;20039;-75
2023/04/26 05:18:49;;;;;;;15.70;10.98;;;5.90;82.80;;;;;;5053571;28;20029;-76
2023/04/26 05:21:15;;;;;;;17.17;10.77;;;5.90;82.40;;;;;;5053635;28;20025;-77
2023/04/26 05:23:41;;;;;;;14.45;10.73;;;5.90;82.50;;;;;;5053656;28;20033;-76
2023/04/26 05:26:07;;;;;;;20.15;11.40;;;6.00;82.40;;;;;;5053584;28;20060;-76
2023/04/26 05:28:33;;;;;;;19.00;10.98;;;6.00;82.00;;;;;;5053193;28;20045;-73
2023/04/26 05:30:58;;;;;;;18.27;12.35;;;6.00;81.80;;;;;;5053302;28;20158;-74
2023/04/26 05:33:24;;;;;;;20.17;12.75;;;6.00;81.80;;;;;;5053384;28;20051;-76
2023/04/26 05:35:51;;;;;;;16.20;11.10;;;6.10;82.00;;;;;;5052825;28;20072;-78
2023/04/26 05:38:17;;;;;;;14.50;10.82;;;6.20;81.90;;;;;;5053075;28;20115;-73
2023/04/26 05:40:42;;;;;;;14.23;9.73;;;6.30;82.00;;;;;;5035265;28;20421;-74
2023/04/26 05:43:08;;;;;;;16.05;10.85;;;6.40;82.00;;;;;;5053260;28;20544;-76
2023/04/26 05:45:33;;;;;;;14.60;10.45;;;6.50;82.00;;;;;;5053181;28;20067;-73
2023/04/26 05:48:00;;;;;;;14.27;9.90;;;6.60;81.90;;;;;;5052878;28;20029;-73
2023/04/26 05:50:25;;;;;;;17.45;9.80;;;6.70;81.50;;;;;;5052824;28;20021;-77
2023/04/26 05:52:51;;;;;;;15.15;8.32;;;6.80;80.50;;;;;;5052851;28;20047;-73
2023/04/26 05:55:16;;;;;;;23.15;10.95;;;6.90;80.20;;;;;;5052499;28;20028;-73
2023/04/26 05:57:42;;;;;;;20.63;11.15;;;7.00;79.60;;;;;;5052716;28;20397;-78
2023/04/26 06:00:08;;;;;;;15.38;9.90;;;7.00;78.60;;;;;;5052857;28;20039;-78
2023/04/26 06:02:34;;;;;;;18.30;9.95;;;7.10;78.70;;;;;;5052552;28;20441;-77
2023/04/26 06:05:00;;;;;;;17.25;9.75;;;7.20;78.10;;;;;;5052945;28;20092;-76
2023/04/26 06:07:25;;;;;;;16.65;9.25;;;7.20;77.90;;;;;;5052700;28;20183;-76
2023/04/26 06:09:51;;;;;;;15.85;10.20;;;7.40;78.30;;;;;;5052979;28;20036;-76
2023/04/26 06:12:16;;;;;;;14.00;9.10;;;7.50;79.00;;;;;;5052935;28;20045;-75
2023/04/26 06:14:42;;;;;;;12.85;8.32;;;7.60;77.80;;;;;;5053045;28;20020;-75
2023/04/26 06:17:08;;;;;;;11.57;8.50;;;7.70;77.40;;;;;;5052755;28;20025;-74
2023/04/26 06:19:34;;;;;;;20.27;9.93;;;7.80;76.90;;;;;;5052757;28;20104;-74
2023/04/26 06:21:59;;;;;;;13.98;8.43;;;7.70;75.80;;;;;;5052891;28;20057;-73
2023/04/26 06:24:25;;;;;;;14.90;8.95;;;7.80;76.10;;;;;;5052730;28;20055;-73
2023/04/26 06:26:50;;;;;;;11.95;7.20;;;8.00;75.10;;;;;;5051391;28;20101;-74
2023/04/26 06:29:16;;;;;;;12.90;7.63;;;8.10;75.40;;;;;;5052687;28;20175;-74
2023/04/26 06:31:42;;;;;;;13.20;7.88;;;8.30;74.90;;;;;;5052540;28;20075;-78
2023/04/26 06:34:08;;;;;;;14.35;7.90;;;8.50;73.80;;;;;;5052413;28;20034;-77
2023/04/26 06:36:33;;;;;;;16.00;7.38;;;8.70;73.10;;;;;;5052397;28;20064;-77
2023/04/26 06:38:59;;;;;;;12.93;7.63;;;8.90;72.40;;;;;;5055569;28;20098;-77
2023/04/26 06:41:24;;;;;;;16.35;7.90;;;9.00;71.20;;;;;;5053804;28;20041;-77
2023/04/26 06:43:50;;;;;;;17.30;7.85;;;9.00;70.70;;;;;;5053783;28;20021;-75
2023/04/26 06:46:16;;;;;;;18.38;7.80;;;9.00;69.80;;;;;;5052671;28;20028;-76
2023/04/26 06:48:41;;;;;;;14.82;8.13;;;9.00;69.80;;;;;;5052586;28;20021;-73
2023/04/26 06:51:07;;;;;;;13.93;7.53;;;8.90;68.90;;;;;;5052308;28;20036;-72
2023/04/26 06:53:34;;;;;;;13.80;7.35;;;8.80;69.80;;;;;;5051084;28;20025;-73
2023/04/26 06:55:59;;;;;;;10.60;6.90;;;8.90;70.20;;;;;;5052434;28;20070;-74
2023/04/26 06:58:25;;;;;;;14.13;6.63;;;9.00;70.20;;;;;;5052514;28;20100;-73
2023/04/26 07:00:50;;;;;;;9.95;6.10;;;9.10;69.20;;;;;;5052171;28;20041;-76
2023/04/26 07:03:16;;;;;;;23.67;8.55;;;9.20;68.60;;;;;;5052280;28;20021;-77
2023/04/26 07:05:41;;;;;;;14.70;7.68;;;9.20;67.90;;;;;;5052438;28;20032;-74
2023/04/26 07:08:07;;;;;;;14.60;7.15;;;9.20;68.50;;;;;;5052165;28;20108;-72
2023/04/26 07:10:32;;;;;;;20.02;8.30;;;9.30;68.30;;;;;;5052139;28;20040;-73
2023/04/26 07:12:59;;;;;;;13.13;6.82;;;9.30;67.40;;;;;;5052367;28;20021;-74
2023/04/26 07:15:24;;;;;;;12.27;6.03;;;9.30;67.40;;;;;;5053969;28;20027;-76
2023/04/26 07:17:50;;;;;;;11.77;6.43;;;9.40;67.80;;;;;;5055843;28;20029;-73
2023/04/26 07:20:19;;;;;;;17.52;6.75;;;9.40;66.40;;;;;;5055989;28;20044;-73
2023/04/26 07:22:45;;;;;;;16.83;7.50;;;9.40;66.10;;;;;;5055830;28;20496;-78
2023/04/26 07:25:11;;;;;;;13.95;7.03;;;9.20;66.80;;;;;;5055908;28;20025;-74
2023/04/26 07:27:37;;;;;;;13.48;6.53;;;9.30;67.50;;;;;;5055867;28;20539;-75
2023/04/26 07:30:04;;;;;;;37.00;8.63;;;9.40;66.80;;;;;;5055431;28;20025;-73
2023/04/26 07:32:29;;;;;;;18.42;7.40;;;9.90;84.80;;;;;;5055844;28;20077;-72
2023/04/26 07:34:55;;;;;;;11.82;5.75;;;10.40;78.50;;;;;;5055443;28;20079;-72
2023/04/26 07:37:21;;;;;;;14.65;6.28;;;10.50;71.10;;;;;;5055494;28;20103;-71
2023/04/26 07:39:46;;;;;;;12.68;6.68;;;10.80;69.70;;;;;;5055599;28;20029;-72
2023/04/26 07:42:12;;;;;;;11.00;5.55;;;11.00;65.70;;;;;;5055730;28;20070;-72
2023/04/26 07:44:37;;;;;;;14.70;5.85;;;11.10;64.10;;;;;;5054397;28;20024;-72
2023/04/26 07:47:04;;;;;;;16.35;6.00;;;11.30;62.80;;;;;;5055999;28;20118;-73
2023/04/26 07:49:29;;;;;;;13.07;5.57;;;11.50;61.20;;;;;;5070317;28;20032;-72
2023/04/26 07:51:57;;;;;;;11.38;5.18;;;11.50;58.10;;;;;;5075233;28;20029;-72
2023/04/26 07:54:22;;;;;;;8.35;5.18;;;11.60;59.40;;;;;;5078507;28;20024;-72
2023/04/26 07:56:48;;;;;;;10.63;5.47;;;11.70;58.20;;;;;;5087835;28;20043;-73
2023/04/26 07:59:13;;;;;;;12.30;5.55;;;11.90;57.70;;;;;;5088077;28;20032;-73
2023/04/26 08:01:39;;;;;;;10.07;4.18;;;12.20;57.30;;;;;;5067076;28;20025;-75
2023/04/26 08:04:05;;;;;;;8.95;4.05;;;12.50;56.60;;;;;;5064082;28;20025;-75
2023/04/26 08:06:30;;;;;;;8.18;4.80;;;12.70;54.60;;;;;;5063529;28;20441;-74
2023/04/26 08:08:56;;;;;;;7.13;4.38;;;12.90;54.10;;;;;;5063252;28;20048;-73
2023/04/26 08:11:21;;;;;;;9.80;4.88;;;13.00;54.00;;;;;;5060847;28;20025;-83
2023/04/26 08:13:47;;;;;;;9.27;4.38;;;13.10;51.80;;;;;;5059227;28;20381;-75
2023/04/26 08:16:16;;;;;;;10.57;5.32;;;12.90;51.40;;;;;;5057557;28;20056;-78
2023/04/26 08:18:41;;;;;;;8.10;4.78;;;12.50;52.40;;;;;;5057133;28;20025;-76
2023/04/26 08:21:07;;;;;;;7.68;4.32;;;12.10;52.50;;;;;;5057408;28;20488;-74
2023/04/26 08:23:35;;;;;;;9.23;4.63;;;11.80;52.60;;;;;;5057179;28;20508;-75
2023/04/26 08:26:01;;;;;;;9.90;4.80;;;11.50;54.20;;;;;;5057100;28;20209;-76
2023/04/26 08:28:26;;;;;;;8.43;4.13;;;11.20;54.20;;;;;;5057050;28;20358;-74
2023/04/26 08:30:52;;;;;;;7.75;4.30;;;11.10;54.70;;;;;;5056700;28;20020;-74
2023/04/26 08:33:18;;;;;;;12.05;4.32;;;11.00;55.10;;;;;;5057291;28;20463;-74
2023/04/26 08:35:43;;;;;;;9.85;4.57;;;10.90;55.30;;;;;;5056315;28;20036;-75
2023/04/26 08:38:09;;;;;;;10.55;4.97;;;10.70;56.20;;;;;;5040204;28;20039;-75
2023/04/26 08:40:35;;;;;;;9.15;4.63;;;10.60;56.10;;;;;;5056548;28;20051;-74
2023/04/26 08:43:01;;;;;;;7.95;4.38;;;10.50;56.70;;;;;;5056468;28;20052;-75
2023/04/26 08:45:26;;;;;;;7.97;3.90;;;10.50;55.10;;;;;;5056577;28;20113;-75
2023/04/26 08:47:57;;;;;;;10.30;5.20;;;10.60;55.40;;;;;;5056636;28;20021;-75
2023/04/26 08:50:23;;;;;;;7.20;4.30;;;10.80;57.00;;;;;;5056426;28;20039;-74
2023/04/26 08:52:50;;;;;;;8.95;4.72;;;11.20;55.80;;;;;;5056433;28;20534;-73
2023/04/26 08:55:18;;;;;;;9.32;4.38;;;11.40;53.90;;;;;;5056227;28;20337;-73
2023/04/26 08:57:46;;;;;;;6.22;4.40;;;11.30;53.10;;;;;;5056247;28;20139;-73
2023/04/26 09:00:14;;;;;;;8.48;4.25;;;11.40;54.40;;;;;;5056217;28;20039;-74
2023/04/26 09:02:48;;;;;;;9.85;5.32;;;11.40;55.10;;;;;;5055485;28;20075;-75
2023/04/26 09:05:14;;;;;;;8.80;4.65;;;11.40;54.50;;;;;;5056073;28;20025;-74
2023/04/26 09:07:42;;;;;;;13.27;5.40;;;11.20;54.10;;;;;;5056068;28;20431;-74
2023/04/26 09:10:08;;;;;;;11.00;5.65;;;10.80;55.00;;;;;;5056160;28;20021;-74
2023/04/26 09:12:35;;;;;;;9.82;5.30;;;10.90;55.30;;;;;;5055071;28;20028;-74
2023/04/26 09:15:01;;;;;;;12.15;5.40;;;10.80;52.50;;;;;;5054385;28;20025;-74
2023/04/26 09:17:31;;;;;;;9.85;4.82;;;10.60;52.90;;;;;;5054771;28;20080;-75
2023/04/26 09:19:58;;;;;;;11.93;5.47;;;10.80;54.00;;;;;;5054256;28;20496;-77
2023/04/26 09:22:28;;;;;;;9.95;5.38;;;10.90;54.50;;;;;;5054149;28;20376;-74
2023/04/26 09:24:53;;;;;;;17.90;5.80;;;11.10;53.80;;;;;;5051961;28;20032;-73
2023/04/26 09:27:19;;;;;;;8.30;5.07;;;11.40;53.60;;;;;;5071376;28;20025;-74
2023/04/26 09:30:10;;;;;;;9.40;4.82;;;11.50;52.90;;;;;;5054190;28;20024;-73
2023/04/26 09:32:45;;;;;;;8.05;4.18;;;11.60;52.20;;;;;;5070453;28;20032;-73
2023/04/26 09:35:20;;;;;;;;;;;11.80;51.70;;;;;;5052383;28;20020;-73
2023/04/26 09:37:57;;;;;;;8.60;4.53;;;12.10;50.90;;;;;;5053393;28;20294;-75
2023/04/26 09:40:27;;;;;;;7.60;4.20;;;12.40;50.50;;;;;;5072006;28;20032;-77
2023/04/26 09:43:01;;;;;;;12.18;4.45;;;12.60;50.00;;;;;;5053979;28;20463;-74
2023/04/26 09:45:28;;;;;;;7.80;4.50;;;12.60;49.60;;;;;;5054211;28;20016;-74
2023/04/26 09:47:54;;;;;;;11.00;4.18;;;12.70;48.60;;;;;;5054322;28;20381;-75
2023/04/26 09:50:27;;;;;;;9.35;4.40;;;12.80;48.40;;;;;;5055227;28;20028;-76
2023/04/26 09:52:54;;;;;;;6.47;3.63;;;13.00;48.50;;;;;;5055211;28;20020;-75
2023/04/26 09:55:30;;;;;;;8.85;3.70;;;13.10;47.60;;;;;;5055489;28;20030;-75
2023/04/26 09:57:59;;;;;;;;;;;13.30;48.00;;;;;;5055216;28;20459;-75
2023/04/26 10:00:26;;;;;;;8.68;3.90;;;13.50;49.10;;;;;;5054194;28;19920;-75
2023/04/26 10:02:55;;;;;;;7.18;3.95;;;13.60;48.10;;;;;;5053913;28;20127;-73
2023/04/26 10:05:21;;;;;;;5.65;3.03;;;13.70;47.70;;;;;;5052221;28;20419;-73
2023/04/26 10:07:48;;;;;;;7.95;3.85;;;13.80;47.00;;;;;;5054589;28;20107;-73
2023/04/26 10:10:15;;;;;;;8.48;4.22;;;13.90;46.90;;;;;;5054638;28;20024;-74
2023/04/26 10:12:43;;;;;;;6.05;3.85;;;13.90;46.10;;;;;;5054900;28;20021;-73
2023/04/26 10:15:10;;;;;;;7.28;3.65;;;13.40;44.20;;;;;;5055097;28;20111;-75
2023/04/26 10:17:40;;;;;;;6.45;3.40;;;13.10;45.00;;;;;;5053881;28;20033;-73
2023/04/26 10:20:10;;;;;;;9.30;4.35;;;12.80;46.30;;;;;;5051121;28;20072;-74
2023/04/26 10:22:46;;;;;;;9.55;3.70;;;12.60;46.50;;;;;;5053684;28;20133;-75
2023/04/26 10:25:12;;;;;;;8.35;4.00;;;12.30;47.80;;;;;;5052038;28;20380;-74
2023/04/26 10:27:43;;;;;;;8.10;3.95;;;12.10;48.50;;;;;;5053657;28;20017;-74
2023/04/26 10:30:13;;;;;;;10.00;4.22;;;11.80;49.50;;;;;;5068329;28;20025;-74
2023/04/26 10:33:05;;;;;;;7.45;4.15;;;11.60;51.40;;;;;;5053877;28;20024;-74
2023/04/26 10:35:31;;;;;;;8.10;4.40;;;11.50;51.50;;;;;;5055265;28;20036;-74
2023/04/26 10:38:00;;;;;;;9.27;3.95;;;11.70;52.00;;;;;;5054126;28;20082;-74
2023/04/26 10:40:39;;;;;;;10.00;3.97;;;12.00;52.20;;;;;;5069663;28;20033;-75
2023/04/26 10:43:08;;;;;;;8.00;4.00;;;12.10;50.70;;;;;;5069191;28;20024;-74
2023/04/26 10:45:34;;;;;;;5.57;3.55;;;12.40;50.20;;;;;;5054090;28;20390;-75
2023/04/26 10:48:27;;;;;;;7.38;3.72;;;12.60;47.80;;;;;;5054224;28;20111;-75
2023/04/26 10:51:04;;;;;;;9.43;3.53;;;12.80;48.10;;;;;;5057404;28;20043;-74
2023/04/26 10:53:55;;;;;;;7.20;3.58;;;13.00;48.30;;;;;;5056281;28;20016;-77
2023/04/26 10:56:27;;;;;;;10.55;3.22;;;13.00;46.90;;;;;;5064752;28;20036;-79
2023/04/26 10:59:25;;;;;;;5.95;2.78;;;13.20;47.10;;;;;;5057437;28;20028;-78
2023/04/26 11:01:51;;;;;;;4.30;2.80;;;13.60;45.80;;;;;;5013979;28;20270;-77
2023/04/26 11:04:17;;;;;;;5.47;3.00;;;14.00;44.40;;;;;;5058141;28;20017;-75
2023/04/26 11:06:50;;;;;;;4.90;2.72;;;14.40;43.30;;;;;;5072993;28;20377;-75
2023/04/26 11:09:38;;;;;;;9.43;3.25;;;14.60;41.20;;;;;;5055756;28;20028;-75
2023/04/26 11:12:04;;;;;;;6.07;3.42;;;14.60;39.90;;;;;;5057548;28;20058;-75
2023/04/26 11:14:30;;;;;;;5.50;3.08;;;14.60;38.90;;;;;;5057660;28;20020;-75
2023/04/26 11:16:56;;;;;;;6.68;3.33;;;14.50;40.10;;;;;;5073720;28;20495;-75
2023/04/26 11:19:21;;;;;;;4.10;2.50;;;14.70;41.80;;;;;;5057277;28;20115;-78
2023/04/26 11:21:47;;;;;;;7.10;3.45;;;15.00;42.00;;;;;;5057752;28;20028;-73
2023/04/26 11:24:16;;;;;;;4.80;2.85;;;15.60;41.50;;;;;;5057062;28;20024;-75
2023/04/26 11:26:49;;;;;;;5.97;3.03;;;16.00;39.70;;;;;;5057472;28;20100;-74
2023/04/26 11:29:18;;;;;;;4.45;2.40;;;16.30;37.90;;;;;;5070953;28;20092;-75
2023/04/26 11:31:50;;;;;;;9.15;3.15;;;16.50;38.40;;;;;;5074920;28;20036;-73
2023/04/26 11:34:16;;;;;;;7.65;2.97;;;16.60;37.10;;;;;;5054990;28;20024;-74
2023/04/26 11:36:43;;;;;;;6.45;3.35;;;16.30;36.60;;;;;;5057782;28;20093;-74
2023/04/26 11:39:10;;;;;;;7.10;3.78;;;15.70;36.90;;;;;;5060349;28;20024;-73
2023/04/26 11:41:35;;;;;;;6.47;3.65;;;14.90;38.30;;;;;;5054465;28;20461;-74
2023/04/26 11:44:01;;;;;;;10.48;4.05;;;14.50;39.70;;;;;;5056935;28;20119;-75
2023/04/26 11:46:26;;;;;;;6.70;3.72;;;14.50;39.20;;;;;;5057325;28;20354;-74
2023/04/26 11:48:52;;;;;;;8.73;3.50;;;14.40;39.20;;;;;;5057792;28;20390;-74
2023/04/26 11:51:18;;;;;;;6.97;2.70;;;14.60;38.40;;;;;;5058391;28;20464;-76
2023/04/26 11:53:44;;;;;;;3.97;2.30;;;14.70;39.60;;;;;;5039728;28;20037;-75
2023/04/26 11:56:17;;;;;;;8.57;5.63;;;14.40;40.60;;;;;;5057801;28;20074;-75
2023/04/26 11:58:45;;;;;;;8.00;4.70;;;14.60;38.80;;;;;;5057292;28;20039;-76
2023/04/26 12:01:11;;;;;;;6.50;3.78;;;14.70;39.10;;;;;;5056998;28;20037;-74
2023/04/26 12:03:36;;;;;;;7.13;3.10;;;14.70;38.50;;;;;;5057430;28;20020;-75
2023/04/26 12:06:03;;;;;;;4.60;2.70;;;14.70;37.70;;;;;;5057411;28;20054;-76
2023/04/26 12:08:30;;;;;;;6.53;2.85;;;14.60;38.60;;;;;;5057307;28;20101;-75
2023/04/26 12:11:01;;;;;;;5.25;2.58;;;14.90;38.90;;;;;;5057171;28;20105;-75
2023/04/26 12:13:28;;;;;;;6.90;2.83;;;15.40;39.10;;;;;;5057284;28;20054;-76
2023/04/26 12:15:54;;;;;;;4.60;2.00;;;15.70;37.90;;;;;;5057096;28;20024;-75
2023/04/26 12:18:22;;;;;;;6.25;2.70;;;15.80;37.80;;;;;;5057068;28;20376;-76
2023/04/26 12:20:48;;;;;;;11.48;3.47;;;15.30;36.30;;;;;;5075113;28;20033;-75
2023/04/26 12:23:16;;;;;;;5.88;2.60;;;15.30;36.40;;;;;;5040309;28;20031;-75
2023/04/26 12:25:55;;;;;;;4.40;2.28;;;15.20;37.20;;;;;;5056970;28;20029;-79
2023/04/26 12:28:22;;;;;;;3.25;2.40;;;15.30;37.10;;;;;;5057229;28;20115;-76
2023/04/26 12:30:49;;;;;;;4.35;2.35;;;15.40;36.20;;;;;;5074870;28;20078;-76
2023/04/26 12:33:15;;;;;;;6.97;3.30;;;15.40;37.00;;;;;;5057210;28;20434;-76
2023/04/26 12:35:41;;;;;;;4.57;2.35;;;15.50;35.60;;;;;;5057230;28;20017;-77
2023/04/26 12:38:06;;;;;;;5.88;2.50;;;15.80;37.00;;;;;;5056726;28;20442;-75
2023/04/26 12:40:32;;;;;;;5.13;2.28;;;16.20;35.70;;;;;;5056775;28;20089;-76
2023/04/26 12:42:58;;;;;;;4.28;2.17;;;16.60;36.00;;;;;;5073242;28;20020;-73
2023/04/26 12:45:25;;;;;;;5.97;2.40;;;16.80;35.10;;;;;;5055902;28;20111;-77
2023/04/26 12:47:52;;;;;;;5.10;2.45;;;16.60;35.20;;;;;;5055758;28;20632;-75